createdAt,value
2023-03-31T00:02:13.872Z,10.12
2023-03-31T00:04:46.593Z,10.20
2023-03-31T00:07:16.633Z,10.24
2023-03-31T00:09:48.304Z,10.22
2023-03-31T00:12:16.526Z,10.14
2023-03-31T00:14:43.690Z,10.18
2023-03-31T00:17:10.815Z,10.17
2023-03-31T00:19:37.722Z,10.23
2023-03-31T00:22:05.366Z,10.12
2023-03-31T00:24:33.028Z,9.95
2023-03-31T00:27:03.470Z,9.63
2023-03-31T00:29:29.983Z,9.74
2023-03-31T00:31:56.572Z,9.61
2023-03-31T00:34:23.053Z,9.66
2023-03-31T00:36:49.558Z,9.62
2023-03-31T00:39:18.629Z,9.52
2023-03-31T00:41:45.711Z,9.47
2023-03-31T00:44:22.601Z,9.43
2023-03-31T00:46:57.092Z,9.42
2023-03-31T00:49:47.049Z,9.39
2023-03-31T00:52:16.150Z,9.41
2023-03-31T00:54:45.580Z,9.36
2023-03-31T00:57:13.471Z,9.46
2023-03-31T00:59:46.617Z,9.38
2023-03-31T01:02:14.179Z,9.50
2023-03-31T01:04:55.508Z,9.40
2023-03-31T01:07:46.160Z,9.39
2023-03-31T01:10:13.358Z,9.37
2023-03-31T01:12:42.398Z,9.41
2023-03-31T01:15:09.680Z,9.53
2023-03-31T01:17:37.190Z,9.42
2023-03-31T01:20:36.522Z,9.51
2023-03-31T01:23:41.000Z,9.40
2023-03-31T01:26:32.549Z,9.51
2023-03-31T01:29:25.533Z,9.41
2023-03-31T01:32:01.947Z,9.34
2023-03-31T01:34:52.132Z,9.36
2023-03-31T01:37:56.442Z,9.38
2023-03-31T01:40:38.782Z,9.59
2023-03-31T01:43:37.760Z,9.47
2023-03-31T01:46:23.592Z,9.34
2023-03-31T01:49:32.968Z,9.47
2023-03-31T01:52:28.295Z,9.52
2023-03-31T01:55:04.101Z,9.48
2023-03-31T01:57:41.758Z,9.40
2023-03-31T02:00:14.151Z,9.39
2023-03-31T02:03:05.779Z,9.32
2023-03-31T02:05:38.108Z,9.31
2023-03-31T02:08:15.477Z,9.49
2023-03-31T02:10:45.220Z,9.54
2023-03-31T02:13:13.899Z,9.65
2023-03-31T02:15:43.644Z,9.76
2023-03-31T02:18:13.643Z,9.58
2023-03-31T02:20:46.227Z,9.64
2023-03-31T02:23:15.456Z,9.72
2023-03-31T02:25:49.095Z,9.75
2023-03-31T02:28:21.501Z,9.62
2023-03-31T02:31:49.839Z,9.62
2023-03-31T02:34:16.669Z,9.44
2023-03-31T02:36:45.631Z,9.50
2023-03-31T02:39:17.429Z,9.66
2023-03-31T02:41:44.030Z,9.62
2023-03-31T02:44:11.626Z,9.60
2023-03-31T02:46:39.569Z,9.72
2023-03-31T02:49:08.530Z,9.84
2023-03-31T02:51:49.770Z,9.78
2023-03-31T02:54:21.934Z,9.71
2023-03-31T02:56:48.357Z,9.79
2023-03-31T02:59:52.360Z,9.70
2023-03-31T03:02:21.766Z,9.69
2023-03-31T03:05:06.742Z,9.57
2023-03-31T03:07:54.599Z,9.59
2023-03-31T03:10:45.925Z,9.41
2023-03-31T03:13:44.126Z,9.41
2023-03-31T03:16:19.188Z,9.23
2023-03-31T03:19:00.643Z,9.17
2023-03-31T03:21:28.099Z,9.21
2023-03-31T03:23:54.841Z,9.06
2023-03-31T03:26:23.489Z,9.27
2023-03-31T03:28:50.993Z,9.15
2023-03-31T03:31:17.797Z,9.17
2023-03-31T03:33:44.699Z,9.11
2023-03-31T03:36:11.243Z,9.02
2023-03-31T03:38:37.681Z,8.87
2023-03-31T03:41:04.400Z,8.97
2023-03-31T03:43:31.111Z,8.96
2023-03-31T03:45:57.646Z,9.19
2023-03-31T03:48:24.207Z,9.00
2023-03-31T03:50:51.253Z,9.12
2023-03-31T03:53:17.711Z,9.04
2023-03-31T03:55:45.032Z,9.15
2023-03-31T03:58:11.485Z,9.28
2023-03-31T04:00:37.858Z,9.08
2023-03-31T04:03:04.354Z,9.17
2023-03-31T04:05:31.037Z,9.05
2023-03-31T04:07:57.509Z,9.00
2023-03-31T04:10:23.992Z,8.84
2023-03-31T04:12:50.506Z,9.03
2023-03-31T04:15:16.977Z,9.03
2023-03-31T04:17:50.946Z,8.94
2023-03-31T04:20:17.843Z,8.86
2023-03-31T04:22:47.335Z,8.77
2023-03-31T04:25:17.184Z,8.66
2023-03-31T04:27:50.845Z,8.86
2023-03-31T04:30:22.930Z,8.84
2023-03-31T04:32:54.812Z,8.88
2023-03-31T04:35:26.361Z,8.78
2023-03-31T04:38:00.311Z,8.78
2023-03-31T04:40:27.052Z,8.82
2023-03-31T04:42:53.565Z,9.06
2023-03-31T04:45:20.046Z,9.05
2023-03-31T04:47:46.460Z,9.10
2023-03-31T04:50:16.953Z,9.07
2023-03-31T04:52:43.868Z,9.04
2023-03-31T04:55:10.911Z,9.20
2023-03-31T05:00:59.623Z,9.14
2023-03-31T05:03:26.437Z,9.08
2023-03-31T05:05:53.120Z,9.12
2023-03-31T05:08:19.737Z,8.94
2023-03-31T05:10:46.143Z,9.05
2023-03-31T05:13:12.729Z,9.26
2023-03-31T05:15:40.454Z,9.41
2023-03-31T05:18:08.220Z,9.29
2023-03-31T05:20:34.768Z,9.15
2023-03-31T05:23:01.949Z,9.13
2023-03-31T05:25:33.020Z,9.14
2023-03-31T05:28:01.359Z,8.91
2023-03-31T05:30:28.733Z,8.98
2023-03-31T05:32:55.903Z,9.05
2023-03-31T05:35:23.085Z,9.13
2023-03-31T05:37:49.678Z,9.09
2023-03-31T05:40:16.637Z,8.98
2023-03-31T05:42:43.108Z,8.85
2023-03-31T05:45:10.016Z,8.82
2023-03-31T05:47:37.031Z,8.96
2023-03-31T05:50:07.819Z,8.83
2023-03-31T05:52:34.962Z,8.99
2023-03-31T05:55:01.470Z,9.02
2023-03-31T05:57:28.051Z,9.10
2023-03-31T05:59:54.671Z,9.15
2023-03-31T06:02:21.245Z,9.10
2023-03-31T06:04:48.220Z,9.13
2023-03-31T06:07:15.126Z,9.18
2023-03-31T06:09:41.555Z,9.15
2023-03-31T06:12:08.507Z,9.10
2023-03-31T06:14:37.080Z,9.07
2023-03-31T06:17:03.599Z,9.03
2023-03-31T06:19:31.437Z,9.04
2023-03-31T06:21:58.045Z,9.14
2023-03-31T06:24:24.839Z,9.12
2023-03-31T06:26:53.637Z,9.00
2023-03-31T06:29:20.735Z,8.98
2023-03-31T06:31:47.156Z,8.96
2023-03-31T06:34:13.632Z,9.02
2023-03-31T06:36:40.201Z,9.18
2023-03-31T06:39:06.707Z,9.04
2023-03-31T06:41:33.317Z,9.02
2023-03-31T06:43:59.849Z,8.99
2023-03-31T06:46:26.756Z,8.95
2023-03-31T06:48:54.362Z,9.01
2023-03-31T06:51:21.053Z,9.22
2023-03-31T06:53:47.485Z,9.32
2023-03-31T06:56:16.750Z,9.40
2023-03-31T06:58:43.236Z,9.07
2023-03-31T07:01:11.445Z,9.21
2023-03-31T07:03:38.200Z,9.02
2023-03-31T07:06:05.111Z,9.42
2023-03-31T07:08:31.697Z,9.58
2023-03-31T07:11:00.761Z,9.37
2023-03-31T07:13:28.374Z,9.62
2023-03-31T07:15:55.835Z,9.71
2023-03-31T07:18:25.970Z,9.74
2023-03-31T07:20:52.737Z,9.82
2023-03-31T07:23:20.133Z,9.83
2023-03-31T07:25:47.559Z,9.69
2023-03-31T07:28:14.063Z,9.61
2023-03-31T07:30:41.344Z,9.50
2023-03-31T07:33:08.232Z,9.47
2023-03-31T07:35:38.988Z,9.29
2023-03-31T07:38:05.647Z,9.03
2023-03-31T07:40:32.187Z,9.20
2023-03-31T07:42:58.744Z,9.11
2023-03-31T07:45:26.553Z,8.96
2023-03-31T07:47:53.873Z,8.92
2023-03-31T07:50:21.189Z,9.11
2023-03-31T07:52:48.042Z,9.46
2023-03-31T07:55:14.867Z,9.54
2023-03-31T07:57:42.194Z,9.43
2023-03-31T08:00:12.529Z,9.52
2023-03-31T08:02:41.552Z,9.61
2023-03-31T08:05:09.121Z,9.43
2023-03-31T08:07:41.752Z,9.35
2023-03-31T08:10:13.773Z,9.80
2023-03-31T08:12:40.732Z,9.73
2023-03-31T08:15:08.302Z,10.19
2023-03-31T08:17:35.659Z,10.47
2023-03-31T08:20:07.023Z,10.49
2023-03-31T08:22:34.692Z,10.48
2023-03-31T08:25:01.163Z,11.13
2023-03-31T08:27:27.595Z,11.46
2023-03-31T08:29:54.103Z,12.12
2023-03-31T08:32:24.242Z,12.23
2023-03-31T08:34:51.659Z,12.08
2023-03-31T08:37:18.277Z,12.13
2023-03-31T08:39:44.778Z,11.68
2023-03-31T08:42:16.782Z,11.73
2023-03-31T08:45:27.738Z,11.87
2023-03-31T08:47:59.796Z,11.90
2023-03-31T08:50:32.088Z,11.50
2023-03-31T08:53:23.535Z,11.25
2023-03-31T08:55:52.647Z,11.51
2023-03-31T08:58:31.472Z,11.08
2023-03-31T09:01:08.770Z,11.72
2023-03-31T09:04:12.373Z,11.74
2023-03-31T09:06:57.953Z,11.76
2023-03-31T09:09:26.304Z,11.22
2023-03-31T09:11:58.394Z,11.57
2023-03-31T09:14:36.680Z,11.56
2023-03-31T09:17:25.389Z,11.97
2023-03-31T09:20:28.595Z,12.18
2023-03-31T09:23:07.109Z,12.60
2023-03-31T09:25:39.191Z,12.78
2023-03-31T09:28:30.446Z,12.89
2023-03-31T09:30:57.845Z,13.22
2023-03-31T09:33:31.932Z,13.66
2023-03-31T09:36:03.089Z,13.22
2023-03-31T09:38:31.111Z,13.25
2023-03-31T09:40:59.075Z,14.02
2023-03-31T09:43:31.591Z,14.20
2023-03-31T09:46:09.157Z,13.63
2023-03-31T09:48:46.172Z,14.67
2023-03-31T09:51:21.761Z,14.72
2023-03-31T09:54:01.794Z,15.22
2023-03-31T09:56:41.981Z,14.38
2023-03-31T09:59:15.706Z,14.50
2023-03-31T10:01:42.308Z,14.72
2023-03-31T10:04:09.172Z,15.55
2023-03-31T10:06:42.149Z,14.16
2023-03-31T10:09:11.032Z,13.55
2023-03-31T10:11:37.904Z,13.76
2023-03-31T10:14:14.328Z,13.31
2023-03-31T10:16:48.826Z,12.93
2023-03-31T10:19:29.320Z,13.12
2023-03-31T10:22:07.225Z,12.34
2023-03-31T10:24:42.135Z,11.94
2023-03-31T10:27:23.164Z,11.26
2023-03-31T10:29:54.207Z,10.69
2023-03-31T10:32:28.874Z,10.44
2023-03-31T10:34:56.946Z,9.93
2023-03-31T10:37:26.240Z,9.48
2023-03-31T10:40:14.769Z,9.26
2023-03-31T10:42:46.433Z,8.85
2023-03-31T10:45:37.286Z,8.68
2023-03-31T10:48:07.164Z,8.78
2023-03-31T10:50:36.444Z,9.27
2023-03-31T10:53:21.047Z,9.69
2023-03-31T10:56:09.015Z,10.23
2023-03-31T10:58:47.051Z,10.87
2023-03-31T11:01:39.925Z,12.07
2023-03-31T11:04:27.968Z,12.61
2023-03-31T11:07:28.434Z,12.96
2023-03-31T11:10:19.351Z,14.15
2023-03-31T11:12:50.401Z,14.96
2023-03-31T11:15:39.374Z,15.78
2023-03-31T11:18:14.758Z,15.89
2023-03-31T11:21:03.709Z,16.37
2023-03-31T11:23:49.178Z,15.21
2023-03-31T11:26:33.798Z,13.91
2023-03-31T11:29:20.831Z,12.99
2023-03-31T11:32:09.580Z,14.06
2023-03-31T11:34:57.587Z,13.64
2023-03-31T11:37:53.629Z,15.70
2023-03-31T11:40:20.159Z,16.40
2023-03-31T11:42:52.021Z,14.82
2023-03-31T11:45:28.304Z,14.40
2023-03-31T11:48:05.506Z,13.25
2023-03-31T11:50:39.937Z,13.66
2023-03-31T11:53:16.222Z,13.14
2023-03-31T11:55:45.056Z,12.82
2023-03-31T11:58:15.565Z,12.42
2023-03-31T12:00:46.784Z,12.86
2023-03-31T12:03:43.760Z,13.32
2023-03-31T12:06:20.014Z,13.29
2023-03-31T12:09:04.344Z,12.84
2023-03-31T12:11:50.522Z,12.32
2023-03-31T12:14:35.639Z,12.09
2023-03-31T12:17:13.426Z,11.98
2023-03-31T12:19:49.844Z,12.04
2023-03-31T12:22:25.671Z,12.22
2023-03-31T12:24:53.342Z,13.75
2023-03-31T12:27:41.771Z,15.04
2023-03-31T12:30:17.830Z,16.37
2023-03-31T12:32:49.807Z,14.55
2023-03-31T12:35:33.619Z,14.89
2023-03-31T12:38:03.160Z,16.19
2023-03-31T12:40:37.649Z,15.28
2023-03-31T12:43:21.508Z,15.25
2023-03-31T12:46:04.784Z,15.88
2023-03-31T12:48:37.752Z,17.14
2023-03-31T12:51:30.087Z,16.59
2023-03-31T12:54:10.339Z,19.29
2023-03-31T12:57:12.940Z,18.92
2023-03-31T12:59:44.442Z,17.98
2023-03-31T13:02:14.969Z,20.29
2023-03-31T13:04:42.972Z,18.72
2023-03-31T13:07:29.085Z,18.74
2023-03-31T13:09:57.891Z,16.79
2023-03-31T13:12:27.948Z,16.67
2023-03-31T13:15:00.042Z,15.83
2023-03-31T13:17:32.951Z,16.59
2023-03-31T13:20:28.869Z,16.68
2023-03-31T13:23:07.077Z,14.72
2023-03-31T13:25:39.698Z,14.94
2023-03-31T13:28:21.204Z,18.18
2023-03-31T13:30:52.037Z,19.69
2023-03-31T13:33:32.760Z,18.21
2023-03-31T13:36:17.955Z,16.93
2023-03-31T13:38:56.576Z,15.06
2023-03-31T13:41:32.170Z,14.96
2023-03-31T13:44:15.691Z,15.18
2023-03-31T13:47:00.421Z,14.70
2023-03-31T13:50:01.391Z,14.72
2023-03-31T13:52:38.830Z,14.99
2023-03-31T13:55:34.409Z,13.91
2023-03-31T13:58:35.010Z,13.38
2023-03-31T14:01:19.191Z,13.06
2023-03-31T14:04:30.040Z,11.54
2023-03-31T14:07:07.671Z,10.94
2023-03-31T14:09:36.601Z,10.67
2023-03-31T14:12:37.938Z,10.73
2023-03-31T14:15:06.325Z,11.53
2023-03-31T14:17:38.577Z,12.28
2023-03-31T14:21:06.926Z,12.84
2023-03-31T14:24:02.577Z,15.36
2023-03-31T14:26:57.149Z,16.80
2023-03-31T14:29:47.752Z,17.28
2023-03-31T14:32:26.656Z,18.76
2023-03-31T14:35:26.690Z,18.27
2023-03-31T14:37:56.186Z,17.45
2023-03-31T14:40:24.053Z,15.81
2023-03-31T14:42:50.710Z,15.73
2023-03-31T14:45:24.915Z,14.34
2023-03-31T14:48:02.730Z,13.58
2023-03-31T14:50:35.689Z,13.20
2023-03-31T14:53:02.484Z,14.37
2023-03-31T14:55:54.296Z,14.58
2023-03-31T14:58:36.766Z,14.99
2023-03-31T15:01:06.872Z,14.30
2023-03-31T15:03:37.472Z,14.22
2023-03-31T15:06:05.367Z,13.79
2023-03-31T15:08:34.427Z,13.11
2023-03-31T15:11:12.801Z,13.00
2023-03-31T15:13:56.672Z,12.61
2023-03-31T15:16:36.440Z,12.47
2023-03-31T15:19:12.782Z,12.43
2023-03-31T15:21:39.896Z,11.95
2023-03-31T15:24:07.873Z,11.21
2023-03-31T15:26:41.721Z,8.67
2023-03-31T15:29:16.634Z,8.39
2023-03-31T15:31:43.453Z,8.41
2023-03-31T15:34:33.563Z,8.28
2023-03-31T15:37:01.687Z,8.36
2023-03-31T15:39:32.989Z,8.53
2023-03-31T15:42:03.376Z,8.53
2023-03-31T15:44:39.459Z,8.56
2023-03-31T15:47:18.960Z,8.72
2023-03-31T15:49:54.572Z,8.88
2023-03-31T15:52:24.976Z,8.88
2023-03-31T15:54:51.784Z,9.00
2023-03-31T15:57:22.245Z,9.00
2023-03-31T15:59:56.722Z,8.97
2023-03-31T16:02:27.636Z,9.16
2023-03-31T16:04:58.692Z,9.35
2023-03-31T16:07:29.756Z,9.43
2023-03-31T16:10:09.289Z,9.61
2023-03-31T16:12:48.839Z,9.74
2023-03-31T16:15:22.641Z,9.83
2023-03-31T16:17:55.837Z,9.85
2023-03-31T16:20:37.331Z,9.67
2023-03-31T16:23:16.355Z,10.01
2023-03-31T16:25:43.617Z,10.02
2023-03-31T16:28:16.717Z,9.67
2023-03-31T16:30:44.949Z,9.75
2023-03-31T16:33:17.570Z,9.61
2023-03-31T16:35:51.081Z,9.66
2023-03-31T16:38:18.006Z,9.66
2023-03-31T16:40:46.888Z,9.71
2023-03-31T16:43:23.824Z,9.72
2023-03-31T16:45:56.327Z,9.82
2023-03-31T16:48:25.927Z,9.96
2023-03-31T16:50:54.535Z,9.90
2023-03-31T16:53:24.065Z,9.81
2023-03-31T16:55:50.531Z,9.86
2023-03-31T16:58:17.847Z,9.85
2023-03-31T17:00:45.855Z,9.81
2023-03-31T17:03:14.827Z,9.95
2023-03-31T17:05:43.729Z,9.91
2023-03-31T17:08:11.850Z,10.16
2023-03-31T17:10:40.251Z,9.92
2023-03-31T17:13:08.077Z,10.08
2023-03-31T17:15:36.449Z,10.12
2023-03-31T17:18:03.629Z,9.94
2023-03-31T17:20:31.017Z,9.87
2023-03-31T17:22:57.757Z,9.90
2023-03-31T17:25:24.471Z,10.05
2023-03-31T17:27:50.991Z,9.90
2023-03-31T17:30:18.065Z,9.99
2023-03-31T17:32:44.569Z,10.04
2023-03-31T17:35:11.527Z,10.00
2023-03-31T17:37:38.650Z,10.04
2023-03-31T17:40:06.446Z,9.99
2023-03-31T17:42:33.052Z,10.02
2023-03-31T17:44:59.641Z,9.97
2023-03-31T17:47:26.178Z,9.96
2023-03-31T17:49:52.644Z,9.87
2023-03-31T17:52:19.128Z,9.85
2023-03-31T17:54:45.850Z,9.85
2023-03-31T17:57:13.020Z,9.85
2023-03-31T17:59:39.604Z,9.86
2023-03-31T18:02:06.644Z,9.90
2023-03-31T18:04:33.564Z,9.85
2023-03-31T18:07:00.360Z,9.87
2023-03-31T18:09:26.925Z,9.89
2023-03-31T18:11:53.765Z,9.88
2023-03-31T18:14:20.435Z,9.84
2023-03-31T18:16:46.869Z,9.98
2023-03-31T18:19:14.132Z,9.90
2023-03-31T18:21:40.854Z,9.96
2023-03-31T18:24:07.415Z,9.88
2023-03-31T18:26:34.080Z,9.96
2023-03-31T18:29:00.599Z,10.04
2023-03-31T18:31:27.364Z,10.03
2023-03-31T18:33:54.890Z,9.95
2023-03-31T18:36:22.599Z,9.95
2023-03-31T18:38:50.081Z,10.08
2023-03-31T18:41:20.598Z,9.99
2023-03-31T18:43:54.078Z,9.83
2023-03-31T18:46:20.999Z,9.90
2023-03-31T18:48:47.459Z,9.76
2023-03-31T18:51:14.975Z,9.86
2023-03-31T18:53:41.927Z,9.85
2023-03-31T18:56:08.521Z,9.86
2023-03-31T18:58:35.444Z,9.94
2023-03-31T19:01:01.884Z,9.88
2023-03-31T19:03:28.763Z,9.91
2023-03-31T19:06:09.913Z,10.02
2023-03-31T19:08:37.268Z,9.99
2023-03-31T19:11:12.775Z,9.96
2023-03-31T19:13:41.987Z,9.94
2023-03-31T19:16:12.277Z,9.94
2023-03-31T19:18:39.295Z,9.79
2023-03-31T19:21:06.264Z,9.80
2023-03-31T19:23:33.416Z,9.84
2023-03-31T19:26:00.458Z,9.86
2023-03-31T19:28:27.859Z,9.94
2023-03-31T19:30:56.668Z,9.98
2023-03-31T19:33:24.313Z,9.86
2023-03-31T19:35:51.569Z,9.86
2023-03-31T19:38:18.990Z,9.74
2023-03-31T19:40:45.712Z,9.65
2023-03-31T19:43:24.575Z,9.55
2023-03-31T19:45:53.426Z,9.61
2023-03-31T19:48:20.115Z,9.59
2023-03-31T19:50:51.155Z,9.58
2023-03-31T19:53:18.014Z,9.53
2023-03-31T19:55:44.551Z,9.57
2023-03-31T19:58:11.235Z,9.64
2023-03-31T20:00:38.837Z,9.62
2023-03-31T20:03:06.142Z,9.60
2023-03-31T20:05:32.902Z,9.57
2023-03-31T20:07:59.335Z,9.60
2023-03-31T20:10:25.830Z,9.48
2023-03-31T20:12:52.384Z,9.43
2023-03-31T20:15:18.836Z,9.45
2023-03-31T20:17:45.899Z,9.47
2023-03-31T20:20:12.762Z,9.49
2023-03-31T20:22:41.305Z,9.47
2023-03-31T20:25:08.244Z,9.50
2023-03-31T20:27:34.785Z,9.48
2023-03-31T20:30:01.196Z,9.46
2023-03-31T20:32:27.747Z,9.40
2023-03-31T20:34:54.731Z,9.45
2023-03-31T20:37:21.238Z,9.38
2023-03-31T20:39:48.493Z,9.40
2023-03-31T20:42:14.964Z,9.35
2023-03-31T20:44:41.771Z,9.44
2023-03-31T20:47:09.214Z,9.32
2023-03-31T20:49:35.737Z,9.27
2023-03-31T20:52:02.517Z,9.27
2023-03-31T20:54:29.031Z,9.27
2023-03-31T20:56:55.623Z,9.28
2023-03-31T20:59:23.134Z,9.30
2023-03-31T21:01:49.827Z,9.28
2023-03-31T21:04:16.926Z,9.30
2023-03-31T21:06:46.214Z,9.32
2023-03-31T21:09:14.676Z,9.31
2023-03-31T21:11:41.568Z,9.28
2023-03-31T21:14:12.393Z,9.30
2023-03-31T21:16:40.098Z,9.31
2023-03-31T21:19:06.727Z,9.28
2023-03-31T21:21:35.291Z,9.29
2023-03-31T21:24:02.132Z,9.13
2023-03-31T21:26:28.625Z,9.04
2023-03-31T21:28:55.592Z,8.95
2023-03-31T21:31:24.944Z,8.98
2023-03-31T21:33:52.991Z,9.01
2023-03-31T21:36:22.625Z,9.03
2023-03-31T21:38:50.455Z,9.04
2023-03-31T21:41:20.615Z,9.05
2023-03-31T21:43:47.099Z,9.08
2023-03-31T21:46:23.476Z,9.05
2023-03-31T21:48:50.416Z,9.08
2023-03-31T21:51:18.548Z,9.01
2023-03-31T21:53:45.240Z,8.97
2023-03-31T21:56:11.759Z,8.99
2023-03-31T21:58:38.339Z,9.02
2023-03-31T22:01:05.131Z,8.95
2023-03-31T22:03:34.262Z,8.94
2023-03-31T22:06:03.126Z,8.87
2023-03-31T22:08:31.861Z,8.87
2023-03-31T22:11:00.162Z,8.90
2023-03-31T22:13:27.712Z,8.94
2023-03-31T22:15:54.479Z,9.00
2023-03-31T22:18:21.961Z,8.97
2023-03-31T22:20:49.505Z,8.98
2023-03-31T22:23:16.744Z,8.96
2023-03-31T22:25:43.363Z,8.99
2023-03-31T22:28:10.017Z,9.00
2023-03-31T22:30:36.997Z,9.01
2023-03-31T22:33:03.678Z,9.02
2023-03-31T22:35:33.192Z,9.00
2023-03-31T22:37:59.891Z,9.01
2023-03-31T22:40:28.051Z,8.97
2023-03-31T22:42:54.716Z,9.05
2023-03-31T22:45:21.344Z,8.98
2023-03-31T22:47:47.819Z,8.87
2023-03-31T22:50:14.257Z,8.88
2023-03-31T22:52:40.850Z,8.81
2023-03-31T22:55:07.702Z,8.71
2023-03-31T22:57:34.271Z,8.67
2023-03-31T23:00:00.801Z,8.68
2023-03-31T23:02:27.418Z,8.59
2023-03-31T23:04:53.850Z,8.61
2023-03-31T23:07:21.920Z,8.56
2023-03-31T23:09:48.453Z,8.59
2023-03-31T23:12:14.889Z,8.62
2023-03-31T23:14:41.383Z,8.56
2023-03-31T23:17:08.201Z,8.55
2023-03-31T23:19:34.605Z,8.54
2023-03-31T23:22:02.463Z,8.49
2023-03-31T23:24:29.907Z,8.54
2023-03-31T23:26:56.468Z,8.53
2023-03-31T23:29:23.418Z,8.55
2023-03-31T23:31:49.952Z,8.47
2023-03-31T23:34:16.426Z,8.43
2023-03-31T23:36:43.087Z,8.46
2023-03-31T23:39:10.543Z,8.49
2023-03-31T23:41:37.033Z,8.52
2023-03-31T23:44:04.060Z,8.51
2023-03-31T23:46:31.747Z,8.51
2023-03-31T23:48:58.757Z,8.52
2023-03-31T23:51:25.568Z,8.48
2023-03-31T23:53:52.424Z,8.47
2023-03-31T23:56:18.919Z,8.51
2023-03-31T23:58:45.412Z,8.54
